CXPRP LFLL-EGLC
Flight info
| Callsign | CXPRP |
|---|---|
| Flight time | 1h 17m |
| Altitude | 36000 |
| Route | BUSIL DCT AMORO DCT MOMIL DCT BAGBI DCT SIZZA/N0429F430 DCT LAULY DCT BRY DCT CLM DCT KOPOR DCT VESAN DCT RATUK DCT SOVAT |
| Aircraft | E55P/M-SBDFGHJ2RWY/LB2 |
Departure
| Time | 2026-05-05 20:20 |
|---|---|
| Airport | Lyon Saint-Exupéry Airport (LFLL) |
Arrival
| Time | 2026-05-05 21:37 |
|---|---|
| Airport | London City Airport (EGLC) |
| Time | Latitude | Longitude | Altitude | Speed | Heading |
|---|---|---|---|---|---|
| 2026-05-05 20:00 | 45.72886 | 5.08190 | 775 ft | 0 kts | 355° |
| 2026-05-05 20:16 | 45.72887 | 5.08190 | 775 ft | 0 kts | 355° |
| 2026-05-05 20:16 | 45.72905 | 5.08188 | 775 ft | 3 kts | 11° |
| 2026-05-05 20:16 | 45.72918 | 5.08222 | 775 ft | 3 kts | 85° |
| 2026-05-05 20:17 | 45.72921 | 5.08258 | 776 ft | 3 kts | 85° |
| 2026-05-05 20:17 | 45.72923 | 5.08301 | 777 ft | 4 kts | 85° |
| 2026-05-05 20:17 | 45.72927 | 5.08352 | 778 ft | 5 kts | 83° |
| 2026-05-05 20:17 | 45.72932 | 5.08413 | 779 ft | 6 kts | 83° |
| 2026-05-05 20:18 | 45.72939 | 5.08490 | 780 ft | 8 kts | 84° |
| 2026-05-05 20:18 | 45.72945 | 5.08583 | 782 ft | 9 kts | 85° |
| 2026-05-05 20:18 | 45.72950 | 5.08673 | 783 ft | 7 kts | 85° |
| 2026-05-05 20:18 | 45.72937 | 5.08751 | 784 ft | 7 kts | 126° |
| 2026-05-05 20:19 | 45.72898 | 5.08802 | 784 ft | 6 kts | 149° |
| 2026-05-05 20:19 | 45.72851 | 5.08819 | 785 ft | 10 kts | 176° |
| 2026-05-05 20:19 | 45.72624 | 5.08840 | 790 ft | 67 kts | 176° |
| 2026-05-05 20:19 | 45.71858 | 5.08928 | 825 ft | 136 kts | 174° |
| 2026-05-05 20:20 | 45.70858 | 5.09050 | 1347 ft | 147 kts | 176° |
| 2026-05-05 20:20 | 45.69800 | 5.09124 | 2147 ft | 158 kts | 177° |
| 2026-05-05 20:20 | 45.68633 | 5.09258 | 2829 ft | 180 kts | 175° |
| 2026-05-05 20:20 | 45.67222 | 5.09476 | 3493 ft | 207 kts | 172° |
| 2026-05-05 20:21 | 45.65886 | 5.10475 | 4379 ft | 226 kts | 135° |
| 2026-05-05 20:21 | 45.65203 | 5.12649 | 5245 ft | 245 kts | 97° |
| 2026-05-05 20:21 | 45.65612 | 5.15285 | 6136 ft | 265 kts | 55° |
| 2026-05-05 20:21 | 45.67256 | 5.16787 | 7340 ft | 265 kts | 12° |
| 2026-05-05 20:22 | 45.69236 | 5.16667 | 8729 ft | 251 kts | 349° |
| 2026-05-05 20:22 | 45.71263 | 5.17005 | 9591 ft | 265 kts | 23° |
| 2026-05-05 20:22 | 45.73100 | 5.18679 | 10264 ft | 280 kts | 26° |
| 2026-05-05 20:22 | 45.75132 | 5.19689 | 11230 ft | 279 kts | 6° |
| 2026-05-05 20:23 | 45.77261 | 5.19206 | 11932 ft | 285 kts | 332° |
| 2026-05-05 20:23 | 45.78914 | 5.17312 | 12991 ft | 279 kts | 317° |
| 2026-05-05 20:23 | 45.80638 | 5.15623 | 13712 ft | 291 kts | 325° |
| 2026-05-05 20:23 | 45.82471 | 5.14025 | 14008 ft | 315 kts | 326° |
| 2026-05-05 20:24 | 45.84364 | 5.12495 | 15040 ft | 308 kts | 332° |
| 2026-05-05 20:24 | 45.86187 | 5.11118 | 16220 ft | 296 kts | 324° |
| 2026-05-05 20:24 | 45.87957 | 5.09452 | 16872 ft | 305 kts | 327° |
| 2026-05-05 20:24 | 45.89806 | 5.07873 | 17557 ft | 311 kts | 327° |
| 2026-05-05 20:25 | 45.91671 | 5.06304 | 18301 ft | 315 kts | 327° |
| 2026-05-05 20:25 | 45.93577 | 5.04720 | 19120 ft | 318 kts | 337° |
| 2026-05-05 20:25 | 45.95895 | 5.03651 | 19856 ft | 324 kts | 339° |
| 2026-05-05 20:25 | 45.98157 | 5.02505 | 20627 ft | 328 kts | 339° |
| 2026-05-05 20:26 | 46.00482 | 5.01329 | 21389 ft | 332 kts | 339° |
| 2026-05-05 20:26 | 46.02806 | 5.00151 | 22126 ft | 335 kts | 339° |
| 2026-05-05 20:26 | 46.05090 | 4.98994 | 22793 ft | 340 kts | 339° |
| 2026-05-05 20:26 | 46.07299 | 4.97871 | 23438 ft | 343 kts | 339° |
| 2026-05-05 20:27 | 46.09554 | 4.96727 | 24109 ft | 346 kts | 338° |
| 2026-05-05 20:27 | 46.11832 | 4.95574 | 24726 ft | 350 kts | 338° |
| 2026-05-05 20:27 | 46.14129 | 4.94401 | 25302 ft | 355 kts | 338° |
| 2026-05-05 20:27 | 46.16457 | 4.93213 | 25897 ft | 357 kts | 338° |
| 2026-05-05 20:28 | 46.18954 | 4.91943 | 26514 ft | 361 kts | 338° |
| 2026-05-05 20:28 | 46.21455 | 4.90670 | 27123 ft | 363 kts | 338° |
| 2026-05-05 20:28 | 46.23965 | 4.89389 | 27681 ft | 367 kts | 337° |
| 2026-05-05 20:28 | 46.26550 | 4.88067 | 28251 ft | 370 kts | 337° |
| 2026-05-05 20:29 | 46.29085 | 4.86769 | 28812 ft | 373 kts | 337° |
| 2026-05-05 20:29 | 46.31559 | 4.85503 | 29361 ft | 375 kts | 337° |
| 2026-05-05 20:29 | 46.34015 | 4.84243 | 29974 ft | 374 kts | 336° |
| 2026-05-05 20:29 | 46.36462 | 4.82991 | 30622 ft | 373 kts | 336° |
| 2026-05-05 20:30 | 46.38935 | 4.81718 | 31188 ft | 371 kts | 336° |
| 2026-05-05 20:30 | 46.41372 | 4.80460 | 31659 ft | 371 kts | 336° |
| 2026-05-05 20:30 | 46.43788 | 4.79216 | 32063 ft | 370 kts | 336° |
| 2026-05-05 20:30 | 46.46190 | 4.77976 | 32434 ft | 370 kts | 336° |
| 2026-05-05 20:31 | 46.48623 | 4.76719 | 32816 ft | 369 kts | 337° |
| 2026-05-05 20:31 | 46.51004 | 4.75490 | 33187 ft | 368 kts | 337° |
| 2026-05-05 20:31 | 46.53401 | 4.74253 | 33528 ft | 367 kts | 337° |
| 2026-05-05 20:31 | 46.55806 | 4.73010 | 33854 ft | 367 kts | 337° |
| 2026-05-05 20:32 | 46.58266 | 4.71707 | 34225 ft | 365 kts | 334° |
| 2026-05-05 20:32 | 46.60608 | 4.70216 | 34619 ft | 363 kts | 333° |
| 2026-05-05 20:32 | 46.62937 | 4.68707 | 35010 ft | 362 kts | 333° |
| 2026-05-05 20:32 | 46.65239 | 4.67204 | 35375 ft | 361 kts | 333° |
| 2026-05-05 20:33 | 46.67509 | 4.65714 | 35727 ft | 360 kts | 333° |
| 2026-05-05 20:33 | 46.69880 | 4.64157 | 35867 ft | 366 kts | 333° |
| 2026-05-05 20:33 | 46.72289 | 4.62571 | 35890 ft | 371 kts | 333° |
| 2026-05-05 20:34 | 46.77160 | 4.59364 | 35894 ft | 382 kts | 333° |
| 2026-05-05 20:34 | 46.82198 | 4.56039 | 35891 ft | 391 kts | 333° |
| 2026-05-05 20:35 | 46.87326 | 4.52648 | 35890 ft | 399 kts | 333° |
| 2026-05-05 20:35 | 46.92501 | 4.49219 | 35893 ft | 406 kts | 333° |
| 2026-05-05 20:36 | 46.97797 | 4.45698 | 35890 ft | 413 kts | 334° |
| 2026-05-05 20:36 | 47.03073 | 4.42188 | 35892 ft | 418 kts | 334° |
| 2026-05-05 20:37 | 47.08424 | 4.38619 | 35885 ft | 423 kts | 334° |
| 2026-05-05 20:37 | 47.13822 | 4.35009 | 35888 ft | 426 kts | 334° |
| 2026-05-05 20:38 | 47.19246 | 4.31373 | 35891 ft | 430 kts | 333° |
| 2026-05-05 20:38 | 47.24689 | 4.27718 | 35890 ft | 433 kts | 333° |
| 2026-05-05 20:39 | 47.30243 | 4.23979 | 35875 ft | 436 kts | 333° |
| 2026-05-05 20:39 | 47.35783 | 4.20241 | 35869 ft | 437 kts | 334° |
| 2026-05-05 20:40 | 47.41254 | 4.16544 | 35872 ft | 432 kts | 334° |
| 2026-05-05 20:40 | 47.46747 | 4.12819 | 35879 ft | 440 kts | 334° |
| 2026-05-05 20:41 | 47.52343 | 4.09018 | 35878 ft | 440 kts | 334° |
| 2026-05-05 20:41 | 47.57867 | 4.05256 | 35880 ft | 432 kts | 334° |
| 2026-05-05 20:42 | 47.63301 | 4.01546 | 35872 ft | 434 kts | 334° |
| 2026-05-05 20:42 | 47.68845 | 3.97752 | 35999 ft | 440 kts | 334° |
| 2026-05-05 20:42 | 47.71612 | 3.95857 | 36313 ft | 438 kts | 334° |
| 2026-05-05 20:43 | 47.74351 | 3.93977 | 36699 ft | 439 kts | 334° |
| 2026-05-05 20:43 | 47.77124 | 3.92071 | 37153 ft | 437 kts | 334° |
| 2026-05-05 20:43 | 47.79861 | 3.90192 | 37582 ft | 436 kts | 334° |
| 2026-05-05 20:43 | 47.82591 | 3.88312 | 37927 ft | 437 kts | 334° |
| 2026-05-05 20:44 | 47.85341 | 3.86416 | 38252 ft | 437 kts | 334° |
| 2026-05-05 20:44 | 47.88121 | 3.84498 | 38577 ft | 438 kts | 334° |
| 2026-05-05 20:44 | 47.90874 | 3.82594 | 38959 ft | 438 kts | 334° |
| 2026-05-05 20:44 | 47.93618 | 3.80695 | 39372 ft | 436 kts | 333° |
| 2026-05-05 20:45 | 47.99065 | 3.76919 | 39966 ft | 431 kts | 334° |
| 2026-05-05 20:45 | 48.04533 | 3.73121 | 40262 ft | 438 kts | 334° |
| 2026-05-05 20:46 | 48.07276 | 3.71214 | 40650 ft | 437 kts | 334° |
| 2026-05-05 20:46 | 48.10022 | 3.69299 | 41081 ft | 434 kts | 334° |
| 2026-05-05 20:46 | 48.12723 | 3.67413 | 41469 ft | 432 kts | 334° |
| 2026-05-05 20:46 | 48.15458 | 3.65505 | 41776 ft | 433 kts | 334° |
| 2026-05-05 20:47 | 48.18185 | 3.63598 | 42018 ft | 432 kts | 334° |
| 2026-05-05 20:47 | 48.20898 | 3.61696 | 42258 ft | 434 kts | 334° |
| 2026-05-05 20:47 | 48.23606 | 3.59800 | 42568 ft | 434 kts | 334° |
| 2026-05-05 20:47 | 48.26325 | 3.57894 | 42797 ft | 433 kts | 334° |
| 2026-05-05 20:48 | 48.31758 | 3.54075 | 42828 ft | 429 kts | 334° |
| 2026-05-05 20:48 | 48.37375 | 3.50116 | 42832 ft | 432 kts | 334° |
| 2026-05-05 20:49 | 48.42868 | 3.46240 | 42833 ft | 437 kts | 334° |
| 2026-05-05 20:49 | 48.48349 | 3.42355 | 42831 ft | 435 kts | 334° |
| 2026-05-05 20:50 | 48.53806 | 3.38482 | 42831 ft | 431 kts | 334° |
| 2026-05-05 20:50 | 48.59198 | 3.34646 | 42833 ft | 431 kts | 333° |
| 2026-05-05 20:51 | 48.64669 | 3.30745 | 42835 ft | 436 kts | 333° |
| 2026-05-05 20:51 | 48.70183 | 3.26805 | 42833 ft | 437 kts | 333° |
| 2026-05-05 20:52 | 48.75661 | 3.22881 | 42832 ft | 432 kts | 333° |
| 2026-05-05 20:52 | 48.81049 | 3.19011 | 42837 ft | 429 kts | 333° |
| 2026-05-05 20:53 | 48.86448 | 3.15123 | 42841 ft | 434 kts | 333° |
| 2026-05-05 20:53 | 48.91883 | 3.11199 | 42843 ft | 439 kts | 333° |
| 2026-05-05 20:54 | 48.97364 | 3.07233 | 42841 ft | 435 kts | 333° |
| 2026-05-05 20:54 | 49.02806 | 3.03288 | 42840 ft | 428 kts | 333° |
| 2026-05-05 20:55 | 49.08137 | 2.99411 | 42847 ft | 429 kts | 333° |
| 2026-05-05 20:55 | 49.13547 | 2.95468 | 42846 ft | 437 kts | 333° |
| 2026-05-05 20:56 | 49.19023 | 2.91469 | 42848 ft | 438 kts | 333° |
| 2026-05-05 20:56 | 49.24476 | 2.87475 | 42846 ft | 431 kts | 333° |
| 2026-05-05 20:57 | 49.29854 | 2.83526 | 42857 ft | 428 kts | 333° |
| 2026-05-05 20:57 | 49.35229 | 2.79568 | 42861 ft | 435 kts | 333° |
| 2026-05-05 20:58 | 49.40695 | 2.75538 | 42857 ft | 440 kts | 333° |
| 2026-05-05 20:58 | 49.46210 | 2.71457 | 42854 ft | 434 kts | 333° |
| 2026-05-05 20:59 | 49.51606 | 2.67458 | 42862 ft | 426 kts | 334° |
| 2026-05-05 20:59 | 49.56939 | 2.63496 | 42862 ft | 429 kts | 333° |
| 2026-05-05 21:00 | 49.62332 | 2.59478 | 42864 ft | 439 kts | 333° |
| 2026-05-05 21:00 | 49.67848 | 2.55352 | 42871 ft | 439 kts | 333° |
| 2026-05-05 21:01 | 49.73337 | 2.51245 | 42864 ft | 430 kts | 333° |
| 2026-05-05 21:01 | 49.75956 | 2.49281 | 42855 ft | 416 kts | 333° |
| 2026-05-05 21:01 | 49.78585 | 2.47306 | 42373 ft | 414 kts | 333° |
| 2026-05-05 21:02 | 49.81238 | 2.45310 | 41869 ft | 410 kts | 333° |
| 2026-05-05 21:02 | 49.83824 | 2.43362 | 41320 ft | 406 kts | 333° |
| 2026-05-05 21:02 | 49.86450 | 2.41385 | 40585 ft | 407 kts | 333° |
| 2026-05-05 21:02 | 49.89102 | 2.39382 | 39737 ft | 410 kts | 333° |
| 2026-05-05 21:03 | 49.91826 | 2.37322 | 38914 ft | 412 kts | 333° |
| 2026-05-05 21:03 | 49.94466 | 2.35325 | 38325 ft | 412 kts | 334° |
| 2026-05-05 21:03 | 49.97106 | 2.33319 | 37765 ft | 412 kts | 333° |
| 2026-05-05 21:03 | 49.99745 | 2.31314 | 37252 ft | 412 kts | 334° |
| 2026-05-05 21:04 | 50.02531 | 2.29198 | 36677 ft | 412 kts | 334° |
| 2026-05-05 21:04 | 50.05441 | 2.26986 | 36052 ft | 413 kts | 334° |
| 2026-05-05 21:04 | 50.08363 | 2.24761 | 35382 ft | 415 kts | 335° |
| 2026-05-05 21:04 | 50.11155 | 2.22634 | 34628 ft | 419 kts | 335° |
| 2026-05-05 21:05 | 50.13920 | 2.20529 | 33898 ft | 418 kts | 335° |
| 2026-05-05 21:05 | 50.16629 | 2.18457 | 33191 ft | 416 kts | 335° |
| 2026-05-05 21:05 | 50.19270 | 2.16437 | 32433 ft | 415 kts | 335° |
| 2026-05-05 21:05 | 50.21939 | 2.14392 | 31588 ft | 416 kts | 335° |
| 2026-05-05 21:06 | 50.24694 | 2.12279 | 30764 ft | 418 kts | 335° |
| 2026-05-05 21:06 | 50.27443 | 2.10167 | 29970 ft | 419 kts | 335° |
| 2026-05-05 21:06 | 50.30300 | 2.07967 | 29291 ft | 421 kts | 334° |
| 2026-05-05 21:06 | 50.33076 | 2.05827 | 28716 ft | 419 kts | 334° |
| 2026-05-05 21:07 | 50.35720 | 2.03787 | 28218 ft | 416 kts | 334° |
| 2026-05-05 21:07 | 50.38127 | 2.01403 | 27744 ft | 414 kts | 320° |
| 2026-05-05 21:07 | 50.40324 | 1.98397 | 27323 ft | 409 kts | 320° |
| 2026-05-05 21:07 | 50.42476 | 1.95468 | 26782 ft | 408 kts | 319° |
| 2026-05-05 21:08 | 50.44615 | 1.92558 | 26231 ft | 406 kts | 320° |
| 2026-05-05 21:08 | 50.46790 | 1.89593 | 25674 ft | 404 kts | 320° |
| 2026-05-05 21:08 | 50.48933 | 1.86668 | 25175 ft | 400 kts | 320° |
| 2026-05-05 21:08 | 50.51015 | 1.83825 | 24685 ft | 394 kts | 320° |
| 2026-05-05 21:09 | 50.53051 | 1.81027 | 24185 ft | 384 kts | 320° |
| 2026-05-05 21:09 | 50.55027 | 1.78323 | 23699 ft | 376 kts | 320° |
| 2026-05-05 21:09 | 50.56989 | 1.75628 | 23230 ft | 368 kts | 320° |
| 2026-05-05 21:09 | 50.59005 | 1.72860 | 22735 ft | 362 kts | 320° |
| 2026-05-05 21:10 | 50.60979 | 1.70144 | 22251 ft | 356 kts | 320° |
| 2026-05-05 21:10 | 50.62959 | 1.67421 | 21759 ft | 350 kts | 321° |
| 2026-05-05 21:10 | 50.64887 | 1.64764 | 21276 ft | 345 kts | 320° |
| 2026-05-05 21:10 | 50.66892 | 1.62231 | 20798 ft | 339 kts | 324° |
| 2026-05-05 21:11 | 50.68806 | 1.59452 | 20303 ft | 335 kts | 319° |
| 2026-05-05 21:11 | 50.70594 | 1.56922 | 19851 ft | 331 kts | 320° |
| 2026-05-05 21:11 | 50.72368 | 1.54435 | 19404 ft | 327 kts | 320° |
| 2026-05-05 21:11 | 50.74165 | 1.51932 | 18947 ft | 324 kts | 320° |
| 2026-05-05 21:12 | 50.75969 | 1.49421 | 18490 ft | 321 kts | 321° |
| 2026-05-05 21:12 | 50.77728 | 1.46975 | 18041 ft | 318 kts | 321° |
| 2026-05-05 21:12 | 50.79492 | 1.44485 | 17588 ft | 315 kts | 320° |
| 2026-05-05 21:12 | 50.81200 | 1.42066 | 17152 ft | 312 kts | 320° |
| 2026-05-05 21:13 | 50.82946 | 1.39592 | 16707 ft | 310 kts | 320° |
| 2026-05-05 21:13 | 50.84651 | 1.37176 | 16268 ft | 307 kts | 320° |
| 2026-05-05 21:13 | 50.86354 | 1.34757 | 15833 ft | 305 kts | 320° |
| 2026-05-05 21:13 | 50.88325 | 1.32929 | 15399 ft | 297 kts | 348° |
| 2026-05-05 21:14 | 50.90592 | 1.32875 | 14960 ft | 292 kts | 4° |
| 2026-05-05 21:14 | 50.92785 | 1.33005 | 14527 ft | 290 kts | 3° |
| 2026-05-05 21:14 | 50.94977 | 1.33144 | 14103 ft | 289 kts | 3° |
| 2026-05-05 21:14 | 50.97175 | 1.33084 | 13672 ft | 288 kts | 353° |
| 2026-05-05 21:15 | 50.99403 | 1.32524 | 13244 ft | 285 kts | 353° |
| 2026-05-05 21:15 | 51.01606 | 1.32001 | 12814 ft | 283 kts | 353° |
| 2026-05-05 21:15 | 51.03786 | 1.31490 | 12388 ft | 281 kts | 353° |
| 2026-05-05 21:15 | 51.05931 | 1.30987 | 11977 ft | 278 kts | 352° |
| 2026-05-05 21:16 | 51.08048 | 1.30487 | 11567 ft | 276 kts | 352° |
| 2026-05-05 21:16 | 51.10097 | 1.30004 | 11170 ft | 274 kts | 352° |
| 2026-05-05 21:16 | 51.12128 | 1.29525 | 10777 ft | 272 kts | 352° |
| 2026-05-05 21:16 | 51.14112 | 1.29059 | 10391 ft | 272 kts | 352° |
| 2026-05-05 21:17 | 51.16104 | 1.28591 | 10031 ft | 284 kts | 352° |
| 2026-05-05 21:17 | 51.18169 | 1.28435 | 9962 ft | 281 kts | 360° |
| 2026-05-05 21:17 | 51.20283 | 1.28032 | 9951 ft | 278 kts | 354° |
| 2026-05-05 21:17 | 51.22349 | 1.27691 | 9946 ft | 276 kts | 354° |
| 2026-05-05 21:18 | 51.24418 | 1.27368 | 9946 ft | 273 kts | 355° |
| 2026-05-05 21:18 | 51.26487 | 1.27060 | 9947 ft | 271 kts | 355° |
| 2026-05-05 21:18 | 51.28543 | 1.26762 | 9948 ft | 270 kts | 355° |
| 2026-05-05 21:18 | 51.30600 | 1.26466 | 9951 ft | 268 kts | 355° |
| 2026-05-05 21:19 | 51.32710 | 1.26162 | 9950 ft | 267 kts | 355° |
| 2026-05-05 21:19 | 51.34836 | 1.26286 | 9956 ft | 266 kts | 18° |
| 2026-05-05 21:19 | 51.36887 | 1.26912 | 9941 ft | 265 kts | 353° |
| 2026-05-05 21:19 | 51.38790 | 1.25374 | 9663 ft | 277 kts | 315° |
| 2026-05-05 21:20 | 51.39745 | 1.22170 | 9390 ft | 282 kts | 283° |
| 2026-05-05 21:20 | 51.40249 | 1.18775 | 9128 ft | 272 kts | 288° |
| 2026-05-05 21:20 | 51.40829 | 1.15586 | 8904 ft | 269 kts | 289° |
| 2026-05-05 21:20 | 51.41441 | 1.12449 | 8683 ft | 266 kts | 290° |
| 2026-05-05 21:21 | 51.42088 | 1.09236 | 8448 ft | 264 kts | 290° |
| 2026-05-05 21:21 | 51.42739 | 1.06030 | 8155 ft | 264 kts | 290° |
| 2026-05-05 21:21 | 51.43388 | 1.02847 | 7836 ft | 264 kts | 290° |
| 2026-05-05 21:21 | 51.44032 | 0.99701 | 7511 ft | 264 kts | 290° |
| 2026-05-05 21:22 | 51.44682 | 0.96513 | 7186 ft | 264 kts | 291° |
| 2026-05-05 21:22 | 51.45341 | 0.93283 | 6866 ft | 264 kts | 291° |
| 2026-05-05 21:22 | 51.45988 | 0.90109 | 6549 ft | 263 kts | 291° |
| 2026-05-05 21:22 | 51.46624 | 0.86982 | 6238 ft | 262 kts | 291° |
| 2026-05-05 21:23 | 51.47254 | 0.83866 | 5996 ft | 258 kts | 291° |
| 2026-05-05 21:23 | 51.47861 | 0.80811 | 5976 ft | 257 kts | 288° |
| 2026-05-05 21:23 | 51.48029 | 0.77606 | 5979 ft | 257 kts | 276° |
| 2026-05-05 21:23 | 51.48148 | 0.74531 | 5978 ft | 256 kts | 277° |
| 2026-05-05 21:24 | 51.48257 | 0.71519 | 5934 ft | 249 kts | 277° |
| 2026-05-05 21:24 | 51.48375 | 0.68376 | 5530 ft | 251 kts | 277° |
| 2026-05-05 21:24 | 51.48494 | 0.65094 | 5075 ft | 255 kts | 277° |
| 2026-05-05 21:24 | 51.48612 | 0.61863 | 4856 ft | 246 kts | 277° |
| 2026-05-05 21:25 | 51.48723 | 0.58782 | 4652 ft | 238 kts | 277° |
| 2026-05-05 21:25 | 51.48831 | 0.55766 | 4458 ft | 232 kts | 278° |
| 2026-05-05 21:25 | 51.48937 | 0.52843 | 4271 ft | 227 kts | 278° |
| 2026-05-05 21:25 | 51.49038 | 0.50001 | 4101 ft | 229 kts | 278° |
| 2026-05-05 21:26 | 51.49083 | 0.47116 | 3982 ft | 237 kts | 265° |
| 2026-05-05 21:26 | 51.48304 | 0.44475 | 3883 ft | 246 kts | 240° |
| 2026-05-05 21:26 | 51.47373 | 0.42001 | 3703 ft | 251 kts | 242° |
| 2026-05-05 21:26 | 51.46446 | 0.39494 | 3532 ft | 252 kts | 242° |
| 2026-05-05 21:27 | 51.45521 | 0.36983 | 3366 ft | 251 kts | 242° |
| 2026-05-05 21:27 | 51.44628 | 0.34556 | 3203 ft | 252 kts | 241° |
| 2026-05-05 21:27 | 51.43724 | 0.32099 | 3041 ft | 252 kts | 242° |
| 2026-05-05 21:27 | 51.43029 | 0.29583 | 2972 ft | 237 kts | 264° |
| 2026-05-05 21:28 | 51.43117 | 0.27001 | 2970 ft | 219 kts | 280° |
| 2026-05-05 21:28 | 51.43269 | 0.24587 | 2916 ft | 211 kts | 279° |
| 2026-05-05 21:28 | 51.43341 | 0.22239 | 2952 ft | 201 kts | 277° |
| 2026-05-05 21:28 | 51.43406 | 0.20015 | 2977 ft | 199 kts | 278° |
| 2026-05-05 21:29 | 51.43475 | 0.17707 | 2985 ft | 200 kts | 277° |
| 2026-05-05 21:29 | 51.43539 | 0.15405 | 2933 ft | 203 kts | 278° |
| 2026-05-05 21:29 | 51.43623 | 0.13059 | 2716 ft | 215 kts | 278° |
| 2026-05-05 21:29 | 51.43698 | 0.10630 | 2545 ft | 222 kts | 277° |
| 2026-05-05 21:30 | 51.43789 | 0.08139 | 2354 ft | 228 kts | 277° |
| 2026-05-05 21:30 | 51.43885 | 0.05595 | 2183 ft | 229 kts | 277° |
| 2026-05-05 21:30 | 51.43949 | 0.03028 | 2026 ft | 227 kts | 276° |
| 2026-05-05 21:30 | 51.44010 | 0.00575 | 1988 ft | 218 kts | 278° |
| 2026-05-05 21:31 | 51.44112 | -0.01813 | 1975 ft | 209 kts | 276° |
| 2026-05-05 21:31 | 51.44166 | -0.04096 | 1962 ft | 201 kts | 276° |
| 2026-05-05 21:31 | 51.44225 | -0.06282 | 2004 ft | 191 kts | 276° |
| 2026-05-05 21:31 | 51.44289 | -0.08370 | 2051 ft | 180 kts | 279° |
| 2026-05-05 21:32 | 51.44653 | -0.10156 | 2047 ft | 157 kts | 313° |
| 2026-05-05 21:32 | 51.45488 | -0.11044 | 1988 ft | 137 kts | 353° |
| 2026-05-05 21:32 | 51.46412 | -0.11218 | 1973 ft | 131 kts | 356° |
| 2026-05-05 21:32 | 51.47299 | -0.11486 | 1959 ft | 128 kts | 356° |
| 2026-05-05 21:33 | 51.48162 | -0.11748 | 1970 ft | 124 kts | 354° |
| 2026-05-05 21:33 | 51.48970 | -0.11651 | 1959 ft | 114 kts | 29° |
| 2026-05-05 21:33 | 51.49557 | -0.10842 | 1978 ft | 109 kts | 46° |
| 2026-05-05 21:33 | 51.50086 | -0.09991 | 1977 ft | 107 kts | 45° |
| 2026-05-05 21:34 | 51.50568 | -0.09096 | 1976 ft | 106 kts | 47° |
| 2026-05-05 21:34 | 51.50916 | -0.08063 | 1962 ft | 108 kts | 78° |
| 2026-05-05 21:34 | 51.50861 | -0.06867 | 1975 ft | 106 kts | 84° |
| 2026-05-05 21:34 | 51.50856 | -0.05661 | 1982 ft | 104 kts | 85° |
| 2026-05-05 21:35 | 51.50821 | -0.04448 | 2003 ft | 112 kts | 88° |
| 2026-05-05 21:35 | 51.50753 | -0.03115 | 1735 ft | 120 kts | 88° |
| 2026-05-05 21:35 | 51.50726 | -0.01702 | 1415 ft | 123 kts | 87° |
| 2026-05-05 21:35 | 51.50694 | -0.00313 | 1087 ft | 118 kts | 89° |
| 2026-05-05 21:36 | 51.50652 | 0.01051 | 769 ft | 111 kts | 90° |
| 2026-05-05 21:36 | 51.50616 | 0.02323 | 495 ft | 106 kts | 90° |
| 2026-05-05 21:36 | 51.50587 | 0.03537 | 226 ft | 100 kts | 91° |
| 2026-05-05 21:36 | 51.50544 | 0.04725 | 22 ft | 94 kts | 92° |
| 2026-05-05 21:37 | 51.50518 | 0.05614 | 17 ft | 53 kts | 91° |
| 2026-05-05 21:37 | 51.50496 | 0.06031 | 17 ft | 8 kts | 143° |
| 2026-05-05 21:37 | 51.50445 | 0.06005 | 17 ft | 8 kts | 228° |
| 2026-05-05 21:37 | 51.50425 | 0.05913 | 16 ft | 9 kts | 275° |
| 2026-05-05 21:38 | 51.50429 | 0.05804 | 17 ft | 10 kts | 273° |
| 2026-05-05 21:38 | 51.50433 | 0.05680 | 17 ft | 12 kts | 272° |
| 2026-05-05 21:38 | 51.50437 | 0.05535 | 17 ft | 13 kts | 272° |
| 2026-05-05 21:38 | 51.50442 | 0.05384 | 20 ft | 13 kts | 273° |
| 2026-05-05 21:39 | 51.50447 | 0.05225 | 18 ft | 15 kts | 272° |
| 2026-05-05 21:39 | 51.50459 | 0.05040 | 17 ft | 17 kts | 282° |
| 2026-05-05 21:39 | 51.50467 | 0.04846 | 14 ft | 10 kts | 273° |
| 2026-05-05 21:39 | 51.50471 | 0.04714 | 13 ft | 12 kts | 273° |
| 2026-05-05 21:40 | 51.50476 | 0.04569 | 13 ft | 13 kts | 273° |
| 2026-05-05 21:40 | 51.50487 | 0.04426 | 13 ft | 9 kts | 277° |
| 2026-05-05 21:40 | 51.50484 | 0.04357 | 13 ft | 4 kts | 175° |
| 2026-05-05 21:40 | 51.50470 | 0.04361 | 13 ft | 0 kts | 167° |